createdAt,value
2023-03-06T00:02:52.325Z,98504.59
2023-03-06T00:06:55.547Z,98513.16
2023-03-06T00:11:00.966Z,98505.91
2023-03-06T00:15:05.705Z,98504.63
2023-03-06T00:19:08.956Z,98496.78
2023-03-06T00:23:13.804Z,98503.81
2023-03-06T00:27:18.309Z,98487.91
2023-03-06T00:31:21.297Z,98476.75
2023-03-06T00:35:24.647Z,98483.78
2023-03-06T00:39:27.865Z,98465.56
2023-03-06T00:43:32.249Z,98468.50
2023-03-06T00:47:35.526Z,98459.25
2023-03-06T00:51:38.743Z,98460.53
2023-03-06T00:55:44.761Z,98455.84
2023-03-06T00:59:49.454Z,98438.91
2023-03-06T01:03:52.652Z,98447.16
2023-03-06T01:07:55.748Z,98433.84
2023-03-06T01:11:59.030Z,98436.84
2023-03-06T01:16:12.373Z,98423.53
2023-03-06T01:20:17.113Z,98433.63
2023-03-06T01:24:20.300Z,98428.47
2023-03-06T01:28:23.810Z,98418.09
2023-03-06T01:32:28.718Z,98423.25
2023-03-06T01:36:31.835Z,98419.06
2023-03-06T01:40:37.365Z,98405.44
2023-03-06T01:45:02.173Z,98400.44
2023-03-06T01:49:11.010Z,98396.78
2023-03-06T01:53:16.655Z,98387.75
2023-03-06T01:57:22.470Z,98382.91
2023-03-06T02:01:25.893Z,98378.44
2023-03-06T02:05:30.345Z,98386.75
2023-03-06T02:09:34.843Z,98387.22
2023-03-06T02:13:38.696Z,98382.53
2023-03-06T02:17:42.818Z,98381.44
2023-03-06T02:21:47.295Z,98371.34
2023-03-06T02:25:53.743Z,98365.63
2023-03-06T02:29:56.926Z,98373.34
2023-03-06T02:34:05.153Z,98366.72
2023-03-06T02:38:12.849Z,98366.56
2023-03-06T02:42:21.707Z,98365.06
2023-03-06T02:46:24.839Z,98352.19
2023-03-06T02:50:27.908Z,98355.78
2023-03-06T02:54:31.176Z,98347.22
2023-03-06T02:58:35.818Z,98342.50
2023-03-06T03:02:39.157Z,98345.25
2023-03-06T03:06:42.246Z,98339.28
2023-03-06T03:10:45.488Z,98341.41
2023-03-06T03:14:50.186Z,98331.50
2023-03-06T03:18:53.461Z,98331.97
2023-03-06T03:22:57.614Z,98322.91
2023-03-06T03:27:00.387Z,98325.06
2023-03-06T03:31:06.568Z,98317.09
2023-03-06T03:35:11.285Z,98319.59
2023-03-06T03:39:14.781Z,98326.41
2023-03-06T03:43:18.373Z,98317.88
2023-03-06T03:47:23.052Z,98319.47
2023-03-06T03:51:26.312Z,98317.50
2023-03-06T03:55:30.217Z,98316.00
2023-03-06T03:59:33.421Z,98295.47
2023-03-06T04:03:38.048Z,98302.81
2023-03-06T04:07:41.460Z,98298.84
2023-03-06T04:11:44.695Z,98291.97
2023-03-06T04:15:47.964Z,98292.47
2023-03-06T04:19:52.470Z,98297.84
2023-03-06T04:23:55.634Z,98283.31
2023-03-06T04:27:58.741Z,98290.44
2023-03-06T04:32:02.041Z,98286.47
2023-03-06T04:36:07.453Z,98276.75
2023-03-06T04:40:13.809Z,98258.81
2023-03-06T04:44:16.984Z,98279.81
2023-03-06T04:48:20.649Z,98279.59
2023-03-06T04:52:24.973Z,98267.16
2023-03-06T04:56:28.197Z,98266.97
2023-03-06T05:00:31.928Z,98265.97
2023-03-06T05:04:35.357Z,98260.38
2023-03-06T05:08:40.086Z,98264.31
2023-03-06T05:12:43.371Z,98257.06
2023-03-06T05:16:47.805Z,98251.06
2023-03-06T05:20:50.816Z,98256.97
2023-03-06T05:24:55.401Z,98245.81
2023-03-06T05:28:58.822Z,98263.31
2023-03-06T05:33:02.252Z,98254.78
2023-03-06T05:37:05.500Z,98249.53
2023-03-06T05:41:12.937Z,98260.94
2023-03-06T05:45:16.048Z,98252.94
2023-03-06T05:49:19.954Z,98249.66
2023-03-06T05:53:22.758Z,98258.41
2023-03-06T05:57:26.912Z,98266.88
2023-03-06T06:01:30.496Z,98270.28
2023-03-06T06:05:33.299Z,98269.44
2023-03-06T06:09:35.998Z,98271.56
2023-03-06T06:13:40.638Z,98273.63
2023-03-06T06:17:44.476Z,98269.94
2023-03-06T06:21:48.424Z,98237.56
2023-03-06T06:25:51.609Z,98273.91
2023-03-06T06:29:56.027Z,98275.56
2023-03-06T06:33:58.630Z,98275.88
2023-03-06T06:38:01.479Z,98264.53
2023-03-06T06:42:27.794Z,98273.16
2023-03-06T06:47:19.304Z,98275.66
2023-03-06T06:50:56.639Z,98265.97
2023-03-06T06:54:59.390Z,98259.66
2023-03-06T06:59:15.775Z,98265.97
2023-03-06T07:03:20.881Z,98246.28
2023-03-06T07:07:25.485Z,98260.28
2023-03-06T07:11:29.306Z,98255.94
2023-03-06T07:15:32.036Z,98269.56
2023-03-06T07:19:37.974Z,98269.97
2023-03-06T07:23:41.734Z,98267.25
2023-03-06T07:27:51.084Z,98267.25
2023-03-06T07:31:56.107Z,98266.94
2023-03-06T07:36:00.468Z,98262.09
2023-03-06T07:40:04.013Z,98274.63
2023-03-06T07:44:06.899Z,98269.13
2023-03-06T07:48:09.673Z,98270.06
2023-03-06T07:52:13.900Z,98241.78
2023-03-06T07:56:16.989Z,98276.00
2023-03-06T08:00:20.657Z,98277.81
2023-03-06T08:04:23.404Z,98293.75
2023-03-06T08:08:27.608Z,98285.47
2023-03-06T08:12:32.504Z,98287.22
2023-03-06T08:16:35.386Z,98297.34
2023-03-06T08:20:38.226Z,98297.81
2023-03-06T08:24:42.960Z,98299.84
2023-03-06T08:28:45.734Z,98297.25
2023-03-06T08:32:48.543Z,98286.94
2023-03-06T08:36:51.404Z,98258.25
2023-03-06T08:40:55.624Z,98298.94
2023-03-06T08:44:58.373Z,98302.00
2023-03-06T08:49:01.174Z,98315.91
2023-03-06T08:53:05.256Z,98313.81
2023-03-06T08:57:09.556Z,98314.81
2023-03-06T09:01:14.871Z,98305.69
2023-03-06T09:05:17.859Z,98314.81
2023-03-06T09:09:20.625Z,98308.69
2023-03-06T09:13:24.746Z,98310.38
2023-03-06T09:17:27.538Z,98311.50
2023-03-06T09:21:30.399Z,98306.16
2023-03-06T09:25:33.178Z,98308.81
2023-03-06T09:29:37.280Z,98308.78
2023-03-06T09:33:40.345Z,98312.84
2023-03-06T09:37:43.231Z,98314.13
2023-03-06T09:41:47.327Z,98301.50
2023-03-06T09:45:51.873Z,98305.59
2023-03-06T09:50:08.767Z,98320.72
2023-03-06T09:54:14.827Z,98313.56
2023-03-06T09:58:19.160Z,98317.69
2023-03-06T10:02:28.503Z,98298.63
2023-03-06T10:06:32.445Z,98315.22
2023-03-06T10:10:42.203Z,98322.19
2023-03-06T10:14:49.119Z,98280.72
2023-03-06T10:18:54.244Z,98309.84
2023-03-06T10:23:20.969Z,98306.56
2023-03-06T10:27:34.096Z,98303.19
2023-03-06T10:31:37.688Z,98309.59
2023-03-06T10:35:50.520Z,98312.94
2023-03-06T10:39:56.192Z,98305.91
2023-03-06T10:44:19.232Z,98302.88
2023-03-06T10:48:22.802Z,98309.09
2023-03-06T10:52:30.476Z,98303.72
2023-03-06T10:56:34.637Z,98311.38
2023-03-06T11:00:37.422Z,98307.47
2023-03-06T11:04:41.740Z,98312.53
2023-03-06T11:08:46.021Z,98315.09
2023-03-06T11:12:57.240Z,98298.22
2023-03-06T11:17:00.013Z,98310.97
2023-03-06T11:21:05.062Z,98295.38
2023-03-06T11:25:11.246Z,98302.22
2023-03-06T11:29:27.845Z,98300.22
2023-03-06T11:33:36.696Z,98299.47
2023-03-06T11:37:45.357Z,98295.84
2023-03-06T11:41:54.185Z,98302.22
2023-03-06T11:46:00.568Z,98297.50
2023-03-06T11:50:15.751Z,98286.22
2023-03-06T11:54:18.583Z,98286.13
2023-03-06T12:03:03.727Z,98287.63
2023-03-06T12:07:17.977Z,98285.63
2023-03-06T12:11:23.900Z,98287.31
2023-03-06T12:15:35.711Z,98277.56
2023-03-06T12:19:52.203Z,98272.59
2023-03-06T12:24:09.404Z,98268.50
2023-03-06T12:28:40.445Z,98249.75
2023-03-06T12:32:50.035Z,98259.13
2023-03-06T12:37:02.725Z,98251.91
2023-03-06T12:41:17.189Z,98233.31
2023-03-06T12:45:28.313Z,98235.72
2023-03-06T12:49:33.430Z,98233.31
2023-03-06T12:53:37.937Z,98232.09
2023-03-06T12:57:41.826Z,98224.00
2023-03-06T13:02:09.469Z,98233.06
2023-03-06T13:06:32.415Z,98233.41
2023-03-06T13:10:39.193Z,98231.06
2023-03-06T13:14:56.897Z,98239.09
2023-03-06T13:19:05.159Z,98228.16
2023-03-06T13:23:43.235Z,98234.47
2023-03-06T13:27:48.516Z,98234.53
2023-03-06T13:32:08.887Z,98221.38
2023-03-06T13:36:26.702Z,98227.88
2023-03-06T13:40:34.338Z,98219.13
2023-03-06T13:44:48.938Z,98213.50
2023-03-06T13:49:06.509Z,98215.09
2023-03-06T13:53:38.835Z,98215.19
2023-03-06T13:57:51.956Z,98208.72
2023-03-06T14:02:04.087Z,98220.00
2023-03-06T14:06:42.359Z,98215.13
2023-03-06T14:10:46.746Z,98207.56
2023-03-06T14:14:52.474Z,98213.59
2023-03-06T14:18:58.000Z,98220.97
2023-03-06T14:23:16.507Z,98210.91
2023-03-06T14:27:19.818Z,98211.59
2023-03-06T14:31:24.446Z,98212.63
2023-03-06T14:35:31.177Z,98221.25
2023-03-06T14:39:36.033Z,98217.03
2023-03-06T14:43:39.011Z,98204.28
2023-03-06T14:47:41.860Z,98202.63
2023-03-06T14:51:47.979Z,98200.44
2023-03-06T14:55:53.235Z,98203.41
2023-03-06T14:59:58.419Z,98199.31
2023-03-06T15:04:02.649Z,98203.53
2023-03-06T15:08:09.646Z,98192.75
2023-03-06T15:12:34.881Z,98196.94
2023-03-06T15:16:37.986Z,98196.13
2023-03-06T15:20:45.794Z,98205.00
2023-03-06T15:24:49.890Z,98211.03
2023-03-06T15:29:08.312Z,98200.78
2023-03-06T15:33:20.889Z,98210.66
2023-03-06T15:37:28.989Z,98209.22
2023-03-06T15:41:35.743Z,98201.09
2023-03-06T15:45:38.620Z,98186.13
2023-03-06T15:49:41.962Z,98212.56
2023-03-06T15:53:44.709Z,98209.88
2023-03-06T15:57:51.339Z,98220.09
2023-03-06T16:01:54.478Z,98214.41
2023-03-06T16:05:57.233Z,98220.31
2023-03-06T16:10:00.066Z,98219.38
2023-03-06T16:14:04.818Z,98207.69
2023-03-06T16:18:08.361Z,98207.19
2023-03-06T16:22:11.319Z,98204.72
2023-03-06T16:26:21.478Z,98197.66
2023-03-06T16:30:26.827Z,98195.94
2023-03-06T16:34:29.829Z,98200.28
2023-03-06T16:38:32.785Z,98200.78
2023-03-06T16:42:35.635Z,98199.63
2023-03-06T16:46:41.609Z,98205.22
2023-03-06T16:50:44.522Z,98209.16
2023-03-06T16:54:47.291Z,98208.81
2023-03-06T16:58:50.260Z,98200.47
2023-03-06T17:02:54.546Z,98181.56
2023-03-06T17:06:57.241Z,98206.13
2023-03-06T17:10:59.958Z,98191.72
2023-03-06T17:15:02.875Z,98206.78
2023-03-06T17:19:07.435Z,98206.69
2023-03-06T17:23:10.411Z,98216.63
2023-03-06T17:27:14.346Z,98211.63
2023-03-06T17:31:18.737Z,98216.88
2023-03-06T17:35:22.735Z,98219.41
2023-03-06T17:39:25.973Z,98220.06
2023-03-06T17:43:32.904Z,98222.09
2023-03-06T17:47:36.514Z,98229.63
2023-03-06T17:51:42.394Z,98228.63
2023-03-06T17:55:45.697Z,98214.19
2023-03-06T17:59:49.227Z,98223.75
2023-03-06T18:03:52.767Z,98218.47
2023-03-06T18:08:01.220Z,98216.09
2023-03-06T18:12:04.731Z,98222.31
2023-03-06T18:16:08.947Z,98218.63
2023-03-06T18:20:13.212Z,98217.47
2023-03-06T18:24:17.959Z,98212.81
2023-03-06T18:28:22.282Z,98216.38
2023-03-06T18:32:25.713Z,98214.19
2023-03-06T18:36:30.816Z,98214.97
2023-03-06T18:40:35.849Z,98207.00
2023-03-06T18:44:39.170Z,98213.63
2023-03-06T18:48:42.468Z,98216.97
2023-03-06T18:52:45.967Z,98220.00
2023-03-06T18:56:50.869Z,98213.63
2023-03-06T19:00:54.549Z,98210.09
2023-03-06T19:04:58.016Z,98209.13
2023-03-06T19:09:02.306Z,98212.09
2023-03-06T19:13:07.551Z,98218.69
2023-03-06T19:17:10.961Z,98203.41
2023-03-06T19:21:15.943Z,98200.66
2023-03-06T19:25:19.580Z,98197.81
2023-03-06T19:29:24.377Z,98199.50
2023-03-06T19:33:27.907Z,98206.91
2023-03-06T19:37:31.142Z,98190.66
2023-03-06T19:41:35.019Z,98188.31
2023-03-06T19:45:43.140Z,98190.81
2023-03-06T19:49:46.218Z,98190.59
2023-03-06T19:53:49.443Z,98184.00
2023-03-06T19:57:54.041Z,98174.66
2023-03-06T20:01:58.629Z,98181.25
2023-03-06T20:06:03.058Z,98179.13
2023-03-06T20:10:07.007Z,98165.09
2023-03-06T20:14:13.382Z,98157.63
2023-03-06T20:18:18.073Z,98165.97
2023-03-06T20:22:21.366Z,98152.00
2023-03-06T20:26:24.710Z,98164.59
2023-03-06T20:30:37.493Z,98163.63
2023-03-06T20:34:42.990Z,98162.63
2023-03-06T20:38:48.025Z,98159.81
2023-03-06T20:42:51.407Z,98155.81
2023-03-06T20:46:55.377Z,98165.66
2023-03-06T20:51:07.155Z,98159.59
2023-03-06T20:55:11.236Z,98155.09
2023-03-06T20:59:14.310Z,98157.63
2023-03-06T21:03:17.695Z,98154.75
2023-03-06T21:07:22.585Z,98145.25
2023-03-06T21:11:26.286Z,98138.16
2023-03-06T21:15:30.250Z,98154.84
2023-03-06T21:19:33.479Z,98148.53
2023-03-06T21:23:40.821Z,98141.38
2023-03-06T21:27:44.265Z,98129.09
2023-03-06T21:31:47.611Z,98127.50
2023-03-06T21:35:50.751Z,98129.50
2023-03-06T21:39:55.757Z,98129.94
2023-03-06T21:44:00.132Z,98123.72
2023-03-06T21:48:03.322Z,98129.94
2023-03-06T21:52:06.900Z,98118.72
2023-03-06T21:56:11.527Z,98117.84
2023-03-06T22:00:14.892Z,98105.97
2023-03-06T22:04:24.272Z,98104.59
2023-03-06T22:08:28.335Z,98108.81
2023-03-06T22:12:34.984Z,98087.63
2023-03-06T22:16:37.986Z,98101.19
2023-03-06T22:20:41.279Z,98091.97
2023-03-06T22:24:44.483Z,98090.03
2023-03-06T22:28:49.263Z,98088.22
2023-03-06T22:32:53.805Z,98077.50
2023-03-06T22:36:57.116Z,98082.06
2023-03-06T22:41:01.152Z,98083.84
2023-03-06T22:45:06.693Z,98083.28
2023-03-06T22:49:11.729Z,98075.34
2023-03-06T22:53:14.862Z,98076.13
2023-03-06T22:57:18.221Z,98067.88
2023-03-06T23:01:25.140Z,98068.06
2023-03-06T23:05:29.501Z,98063.97
2023-03-06T23:09:33.371Z,98066.13
2023-03-06T23:13:37.007Z,98059.63
2023-03-06T23:17:41.887Z,98070.19
2023-03-06T23:21:45.347Z,98065.41
2023-03-06T23:25:49.029Z,98058.91
2023-03-06T23:29:55.290Z,98059.94
2023-03-06T23:34:00.937Z,98053.34
2023-03-06T23:38:04.053Z,98054.38
2023-03-06T23:42:07.199Z,98040.13
2023-03-06T23:46:10.367Z,98047.66
2023-03-06T23:50:15.074Z,98055.00
2023-03-06T23:54:19.426Z,98055.16
2023-03-06T23:58:23.057Z,98048.94
